createdAt,value
2016-05-23T00:00:03.447Z,19.88
2016-05-23T00:01:03.669Z,19.91
2016-05-23T00:02:03.453Z,19.87
2016-05-23T00:03:03.487Z,19.88
2016-05-23T00:04:03.677Z,19.8
2016-05-23T00:05:03.383Z,19.81
2016-05-23T00:06:04.120Z,19.83
2016-05-23T00:07:03.513Z,19.78
2016-05-23T00:08:03.313Z,19.87
2016-05-23T00:09:03.612Z,19.88
2016-05-23T00:11:17.870Z,19.88
2016-05-23T00:12:03.417Z,19.88
2016-05-23T00:13:03.780Z,19.84
2016-05-23T00:14:03.625Z,19.92
2016-05-23T00:15:03.456Z,19.91
2016-05-23T00:16:03.615Z,19.95
2016-05-23T00:17:04.025Z,19.92
2016-05-23T00:18:03.683Z,19.88
2016-05-23T00:19:03.654Z,19.8
2016-05-23T00:20:03.705Z,19.87
2016-05-23T00:21:03.910Z,19.83
2016-05-23T00:22:03.413Z,19.78
2016-05-23T00:23:03.899Z,19.73
2016-05-23T00:24:03.638Z,19.74
2016-05-23T00:25:03.593Z,19.76
2016-05-23T00:26:03.720Z,19.74
2016-05-23T00:27:03.583Z,19.77
2016-05-23T00:28:03.787Z,19.77
2016-05-23T00:29:03.604Z,19.74
2016-05-23T00:30:17.843Z,19.71
2016-05-23T00:31:03.625Z,19.69
2016-05-23T00:32:03.987Z,19.66
2016-05-23T00:33:03.801Z,19.69
2016-05-23T00:34:03.867Z,19.77
2016-05-23T00:35:03.589Z,19.63
2016-05-23T00:36:03.872Z,19.63
2016-05-23T00:37:03.719Z,19.68
2016-05-23T00:38:03.894Z,19.69
2016-05-23T00:39:03.897Z,19.74
2016-05-23T00:40:03.945Z,19.66
2016-05-23T00:41:03.761Z,19.66
2016-05-23T00:42:04.138Z,19.65
2016-05-23T00:43:03.907Z,19.68
2016-05-23T00:44:04.285Z,19.66
2016-05-23T00:45:03.475Z,19.62
2016-05-23T00:46:04.180Z,19.56
2016-05-23T00:47:03.980Z,19.54
2016-05-23T00:48:04.014Z,19.59
2016-05-23T00:49:04.204Z,19.48
2016-05-23T00:50:03.988Z,19.47
2016-05-23T00:51:04.007Z,19.58
2016-05-23T00:52:03.838Z,19.55
2016-05-23T00:53:18.357Z,19.55
2016-05-23T00:54:04.232Z,19.58
2016-05-23T00:55:04.283Z,19.58
2016-05-23T00:56:04.098Z,19.56
2016-05-23T00:57:18.323Z,19.58
2016-05-23T00:58:04.119Z,19.48
2016-05-23T00:59:04.762Z,19.5
2016-05-23T01:00:04.124Z,19.54
2016-05-23T01:01:03.955Z,19.58
2016-05-23T01:02:04.334Z,19.58
2016-05-23T01:04:04.400Z,19.61
2016-05-23T01:05:04.357Z,19.66
2016-05-23T01:06:04.562Z,19.66
2016-05-23T01:07:04.378Z,19.63
2016-05-23T01:08:04.177Z,19.65
2016-05-23T01:09:04.383Z,19.63
2016-05-23T01:10:04.401Z,19.71
2016-05-23T01:11:04.232Z,19.62
2016-05-23T01:12:04.078Z,19.65
2016-05-23T01:13:04.097Z,19.69
2016-05-23T01:14:04.537Z,19.62
2016-05-23T01:15:04.493Z,19.65
2016-05-23T01:16:04.121Z,19.69
2016-05-23T01:19:04.347Z,19.69
2016-05-23T01:20:04.132Z,19.71
2016-05-23T01:21:04.306Z,19.73
2016-05-23T01:22:04.574Z,19.73
2016-05-23T01:23:18.251Z,19.63
2016-05-23T01:24:04.579Z,19.66
2016-05-23T01:25:03.895Z,19.59
2016-05-23T01:26:04.398Z,19.63
2016-05-23T01:27:04.384Z,19.62
2016-05-23T01:28:04.388Z,19.59
2016-05-23T01:29:04.437Z,19.5
2016-05-23T01:30:04.439Z,19.5
2016-05-23T01:31:04.426Z,19.5
2016-05-23T01:32:04.445Z,19.43
2016-05-23T01:33:04.651Z,19.47
2016-05-23T01:34:04.465Z,19.43
2016-05-23T01:35:04.468Z,19.37
2016-05-23T01:36:04.487Z,19.41
2016-05-23T01:37:04.723Z,19.46
2016-05-23T01:38:04.492Z,19.39
2016-05-23T01:39:04.416Z,19.33
2016-05-23T01:40:18.438Z,19.36
2016-05-23T01:41:04.766Z,19.31
2016-05-23T01:42:04.566Z,19.29
2016-05-23T01:43:04.772Z,19.19
2016-05-23T01:44:04.789Z,19.23
2016-05-23T01:45:04.152Z,19.18
2016-05-23T01:46:18.672Z,19.29
2016-05-23T01:47:04.625Z,19.29
2016-05-23T01:48:04.628Z,19.22
2016-05-23T01:49:04.616Z,19.26
2016-05-23T01:50:04.633Z,19.23
2016-05-23T01:53:04.657Z,19.14
2016-05-23T01:54:04.660Z,19.16
2016-05-23T01:55:04.663Z,19.1
2016-05-23T01:56:04.260Z,19
2016-05-23T01:57:04.934Z,18.98
2016-05-23T01:58:04.921Z,18.92
2016-05-23T01:59:04.799Z,18.99
2016-05-23T02:00:04.770Z,18.9
2016-05-23T02:01:04.820Z,18.88
2016-05-23T02:02:04.978Z,18.82
2016-05-23T02:03:04.779Z,18.91
2016-05-23T02:04:04.781Z,18.88
2016-05-23T02:05:04.845Z,18.84
2016-05-23T02:06:19.086Z,18.82
2016-05-23T02:07:05.070Z,18.81
2016-05-23T02:08:05.463Z,18.78
2016-05-23T02:09:05.076Z,18.82
2016-05-23T02:10:04.735Z,18.8
2016-05-23T02:11:04.894Z,18.73
2016-05-23T02:12:05.100Z,18.73
2016-05-23T02:13:04.727Z,18.73
2016-05-23T02:14:04.760Z,18.76
2016-05-23T02:15:05.108Z,18.63
2016-05-23T02:16:05.125Z,18.65
2016-05-23T02:17:05.144Z,18.62
2016-05-23T02:18:04.943Z,18.58
2016-05-23T02:19:05.133Z,18.54
2016-05-23T02:20:05.355Z,18.65
2016-05-23T02:21:05.171Z,18.55
2016-05-23T02:22:05.595Z,18.52
2016-05-23T02:23:05.004Z,18.51
2016-05-23T02:24:04.991Z,18.51
2016-05-23T02:25:05.072Z,18.55
2016-05-23T02:26:05.199Z,18.58
2016-05-23T02:27:05.015Z,18.44
2016-05-23T02:28:05.018Z,18.44
2016-05-23T02:29:05.707Z,18.44
2016-05-23T02:30:05.116Z,18.42
2016-05-23T02:31:05.354Z,18.41
2016-05-23T02:32:05.262Z,18.35
2016-05-23T02:33:04.594Z,18.36
2016-05-23T02:34:19.193Z,18.32
2016-05-23T02:35:19.195Z,18.26
2016-05-23T02:36:05.132Z,18.35
2016-05-23T02:37:05.150Z,18.25
2016-05-23T02:38:05.092Z,18.21
2016-05-23T02:39:19.643Z,18.25
2016-05-23T02:40:05.425Z,18.18
2016-05-23T02:42:05.634Z,18.21
2016-05-23T02:43:04.901Z,18.27
2016-05-23T02:44:05.201Z,18.23
2016-05-23T02:45:05.844Z,18.2
2016-05-23T02:46:05.253Z,18.14
2016-05-23T02:47:05.256Z,18.25
2016-05-23T02:48:05.305Z,18.18
2016-05-23T02:49:05.089Z,18.18
2016-05-23T02:50:05.436Z,18.25
2016-05-23T02:51:05.486Z,18.12
2016-05-23T02:52:05.472Z,18.11
2016-05-23T02:53:05.522Z,18.08
2016-05-23T02:54:05.321Z,18.08
2016-05-23T02:55:19.358Z,18.11
2016-05-23T02:56:05.515Z,17.95
2016-05-23T02:57:05.518Z,18.02
2016-05-23T02:58:05.552Z,17.99
2016-05-23T02:59:05.351Z,17.97
2016-05-23T03:00:05.368Z,17.95
2016-05-23T03:01:05.371Z,17.96
2016-05-23T03:03:05.393Z,17.97
2016-05-23T03:04:05.442Z,17.92
2016-05-23T03:05:05.242Z,17.93
2016-05-23T03:07:05.403Z,17.95
2016-05-23T03:08:05.406Z,17.92
2016-05-23T03:09:05.440Z,17.96
2016-05-23T03:11:05.492Z,17.96
2016-05-23T03:12:05.698Z,17.95
2016-05-23T03:13:05.545Z,17.95
2016-05-23T03:14:06.281Z,17.95
2016-05-23T03:15:05.722Z,17.93
2016-05-23T03:16:05.725Z,17.87
2016-05-23T03:17:19.574Z,17.95
2016-05-23T03:18:05.745Z,17.96
2016-05-23T03:19:06.169Z,17.95
2016-05-23T03:20:05.626Z,17.96
2016-05-23T03:21:05.410Z,17.86
2016-05-23T03:22:05.569Z,17.95
2016-05-23T03:23:05.572Z,17.95
2016-05-23T03:24:05.652Z,17.87
2016-05-23T03:25:05.593Z,17.96
2016-05-23T03:26:05.721Z,17.95
2016-05-23T03:27:05.599Z,17.93
2016-05-23T03:28:05.616Z,17.92
2016-05-23T03:29:19.934Z,17.95
2016-05-23T03:30:05.652Z,17.92
2016-05-23T03:31:05.640Z,17.96
2016-05-23T03:32:05.643Z,17.87
2016-05-23T03:33:05.910Z,17.87
2016-05-23T03:34:06.070Z,17.79
2016-05-23T03:35:05.775Z,17.82
2016-05-23T03:36:05.685Z,17.84
2016-05-23T03:37:05.687Z,17.79
2016-05-23T03:38:05.784Z,17.81
2016-05-23T03:39:05.911Z,17.77
2016-05-23T03:40:05.929Z,17.78
2016-05-23T03:41:05.839Z,17.86
2016-05-23T03:42:20.234Z,17.82
2016-05-23T03:43:06.062Z,17.95
2016-05-23T03:44:05.800Z,17.92
2016-05-23T03:45:05.787Z,17.92
2016-05-23T03:46:05.805Z,17.95
2016-05-23T03:47:05.980Z,17.99
2016-05-23T03:48:05.810Z,17.96
2016-05-23T03:49:05.829Z,18
2016-05-23T03:50:05.831Z,17.96
2016-05-23T03:51:05.663Z,18.02
2016-05-23T03:52:20.168Z,18.08
2016-05-23T03:53:05.918Z,18.05
2016-05-23T03:54:05.921Z,18.11
2016-05-23T03:55:05.877Z,18.1
2016-05-23T03:56:05.630Z,18.11
2016-05-23T03:57:05.897Z,18.25
2016-05-23T03:58:05.932Z,18.2
2016-05-23T03:59:06.340Z,18.21
2016-05-23T04:00:05.530Z,18.17
2016-05-23T04:01:05.971Z,18.18
2016-05-23T04:02:20.038Z,18.36
2016-05-23T04:03:05.804Z,18.32
2016-05-23T04:04:06.182Z,18.32
2016-05-23T04:05:05.841Z,18.36
2016-05-23T04:06:06.218Z,18.33
2016-05-23T04:07:06.221Z,18.44
2016-05-23T04:08:06.240Z,18.62
2016-05-23T04:09:20.135Z,18.55
2016-05-23T04:10:20.123Z,18.62
2016-05-23T04:11:05.810Z,18.54
2016-05-23T04:12:06.047Z,18.63
2016-05-23T04:13:06.315Z,18.65
2016-05-23T04:14:06.287Z,18.67
2016-05-23T04:15:06.243Z,18.69
2016-05-23T04:16:06.308Z,18.8
2016-05-23T04:18:06.361Z,18.85
2016-05-23T04:19:20.209Z,18.85
2016-05-23T04:20:20.415Z,18.9
2016-05-23T04:21:05.994Z,18.94
2016-05-23T04:22:06.152Z,18.99
2016-05-23T04:23:06.233Z,19.04
2016-05-23T04:24:05.752Z,19.04
2016-05-23T04:25:06.425Z,18.99
2016-05-23T04:26:06.053Z,19.14
2016-05-23T04:27:06.650Z,19.11
2016-05-23T04:28:06.231Z,19.16
2016-05-23T04:29:06.249Z,19.18
2016-05-23T04:30:06.721Z,19.18
2016-05-23T04:31:06.301Z,19.19
2016-05-23T04:32:06.476Z,19.25
2016-05-23T04:33:20.356Z,19.29
2016-05-23T04:34:06.559Z,19.16
2016-05-23T04:35:06.327Z,19.26
2016-05-23T04:36:06.315Z,19.32
2016-05-23T04:37:06.333Z,19.36
2016-05-23T04:38:06.351Z,19.41
2016-05-23T04:39:06.354Z,19.4
2016-05-23T04:40:06.357Z,19.41
2016-05-23T04:41:06.375Z,19.44
2016-05-23T04:42:06.784Z,19.5
2016-05-23T04:43:06.381Z,19.55
2016-05-23T04:44:06.821Z,19.59
2016-05-23T04:45:06.698Z,19.63
2016-05-23T04:46:06.482Z,19.66
2016-05-23T04:48:06.737Z,19.77
2016-05-23T04:49:06.662Z,19.76
2016-05-23T04:50:06.540Z,19.68
2016-05-23T04:51:06.715Z,19.77
2016-05-23T04:52:06.515Z,19.78
2016-05-23T04:53:07.188Z,19.84
2016-05-23T04:54:06.723Z,19.83
2016-05-23T04:55:06.522Z,19.77
2016-05-23T04:56:06.791Z,19.78
2016-05-23T04:57:06.544Z,19.78
2016-05-23T04:58:07.015Z,19.91
2016-05-23T04:59:06.861Z,19.8
2016-05-23T05:00:08.066Z,19.87
2016-05-23T05:01:06.820Z,19.95
2016-05-23T05:02:06.635Z,19.91
2016-05-23T05:03:06.810Z,19.84
2016-05-23T05:04:06.890Z,19.92
2016-05-23T05:05:06.658Z,19.98
2016-05-23T05:07:06.696Z,19.96
2016-05-23T05:08:06.979Z,19.91
2016-05-23T05:09:06.748Z,19.92
2016-05-23T05:10:06.938Z,19.94
2016-05-23T05:11:06.596Z,19.88
2016-05-23T05:12:06.599Z,19.96
2016-05-23T05:13:21.430Z,20.02
2016-05-23T05:15:06.842Z,19.96
2016-05-23T05:16:06.797Z,20.03
2016-05-23T05:17:06.785Z,19.92
2016-05-23T05:18:06.647Z,19.92
2016-05-23T05:19:06.571Z,20.05
2016-05-23T05:20:07.277Z,19.95
2016-05-23T05:21:06.859Z,20.06
2016-05-23T05:22:06.876Z,19.98
2016-05-23T05:23:07.097Z,20.06
2016-05-23T05:24:06.882Z,20.02
2016-05-23T05:25:06.916Z,19.96
2016-05-23T05:26:07.136Z,19.99
2016-05-23T05:27:06.906Z,20.05
2016-05-23T05:28:06.955Z,19.96
2016-05-23T05:29:21.223Z,20.01
2016-05-23T05:30:07.711Z,20.05
2016-05-23T05:31:21.057Z,20.02
2016-05-23T05:32:07.060Z,19.98
2016-05-23T05:33:06.515Z,20.02
2016-05-23T05:34:07.033Z,20.11
2016-05-23T05:35:07.005Z,20.14
2016-05-23T05:36:07.039Z,20.18
2016-05-23T05:37:08.010Z,20.14
2016-05-23T05:38:06.904Z,20.18
2016-05-23T05:39:07.157Z,20.18
2016-05-23T05:40:07.128Z,20.24
2016-05-23T05:41:07.490Z,20.2
2016-05-23T05:42:07.321Z,20.26
2016-05-23T05:43:06.621Z,20.24
2016-05-23T05:44:07.013Z,20.36
2016-05-23T05:45:07.032Z,20.42
2016-05-23T05:46:06.706Z,20.33
2016-05-23T05:47:07.193Z,20.36
2016-05-23T05:48:21.493Z,20.32
2016-05-23T05:49:07.214Z,20.35
2016-05-23T05:50:07.248Z,20.36
2016-05-23T05:51:07.439Z,20.41
2016-05-23T05:52:07.067Z,20.42
2016-05-23T05:53:07.272Z,20.41
2016-05-23T05:54:07.259Z,20.38
2016-05-23T05:55:07.278Z,20.38
2016-05-23T05:56:07.483Z,20.41
2016-05-23T05:57:07.283Z,20.42
2016-05-23T05:58:07.301Z,20.43
2016-05-23T05:59:07.508Z,20.41
2016-05-23T06:00:07.385Z,20.52
2016-05-23T06:01:07.372Z,20.51
2016-05-23T06:02:07.359Z,20.5
2016-05-23T06:03:07.440Z,20.51
2016-05-23T06:04:07.567Z,20.58
2016-05-23T06:05:07.617Z,20.61
2016-05-23T06:06:07.636Z,20.59
2016-05-23T06:07:21.482Z,20.8
2016-05-23T06:08:07.452Z,20.74
2016-05-23T06:09:07.455Z,20.72
2016-05-23T06:10:07.662Z,20.79
2016-05-23T06:11:07.305Z,20.89
2016-05-23T06:12:07.682Z,20.91
2016-05-23T06:14:07.937Z,20.94
2016-05-23T06:15:07.379Z,20.98
2016-05-23T06:16:08.428Z,21.04
2016-05-23T06:17:21.602Z,21.03
2016-05-23T06:18:07.559Z,21.03
2016-05-23T06:19:07.562Z,21.04
2016-05-23T06:20:07.814Z,21.14
2016-05-23T06:21:07.582Z,21.22
2016-05-23T06:22:07.616Z,21.14
2016-05-23T06:23:07.728Z,21.27
2016-05-23T06:24:07.667Z,21.24
2016-05-23T06:25:07.858Z,21.31
2016-05-23T06:26:07.673Z,21.37
2016-05-23T06:27:07.676Z,21.46
2016-05-23T06:28:07.538Z,21.49
2016-05-23T06:29:07.697Z,21.53
2016-05-23T06:30:07.622Z,21.58
2016-05-23T06:31:07.109Z,21.61
2016-05-23T06:32:08.127Z,21.72
2016-05-23T06:34:21.852Z,21.77
2016-05-23T06:35:21.714Z,21.92
2016-05-23T06:36:07.810Z,21.82
2016-05-23T06:37:07.797Z,21.83
2016-05-23T06:38:07.831Z,21.8
2016-05-23T06:39:08.022Z,21.8
2016-05-23T06:40:07.882Z,21.82
2016-05-23T06:41:08.808Z,21.79
2016-05-23T06:42:07.888Z,21.8
2016-05-23T06:43:07.594Z,21.83
2016-05-23T06:45:08.209Z,21.8
2016-05-23T06:46:08.227Z,21.82
2016-05-23T06:47:08.137Z,21.8
2016-05-23T06:48:07.936Z,21.77
2016-05-23T06:49:08.214Z,21.75
2016-05-23T06:50:07.899Z,21.64
2016-05-23T06:51:08.286Z,21.68
2016-05-23T06:52:07.970Z,21.67
2016-05-23T06:53:08.155Z,21.59
2016-05-23T06:54:08.166Z,21.64
2016-05-23T06:55:08.193Z,21.62
2016-05-23T06:56:08.252Z,21.64
2016-05-23T06:57:08.265Z,21.52
2016-05-23T06:58:08.276Z,21.46
2016-05-23T06:59:08.298Z,21.47
2016-05-23T07:00:08.975Z,21.44
2016-05-23T07:01:08.403Z,21.52
2016-05-23T07:02:08.565Z,21.49
2016-05-23T07:03:08.414Z,21.5
2016-05-23T07:04:08.559Z,21.65
2016-05-23T07:05:08.422Z,21.67
2016-05-23T07:06:09.347Z,21.68
2016-05-23T07:07:08.633Z,21.75
2016-05-23T07:08:08.449Z,21.86
2016-05-23T07:09:08.593Z,21.84
2016-05-23T07:10:08.939Z,21.86
2016-05-23T07:12:08.774Z,22
2016-05-23T07:13:08.527Z,21.99
2016-05-23T07:14:08.765Z,22.1
2016-05-23T07:15:08.565Z,22.06
2016-05-23T07:16:08.567Z,22.1
2016-05-23T07:17:08.571Z,22.1
2016-05-23T07:18:08.558Z,22.03
2016-05-23T07:19:08.576Z,22.18
2016-05-23T07:20:08.594Z,22.07
2016-05-23T07:21:08.910Z,22.15
2016-05-23T07:22:08.647Z,22.05
2016-05-23T07:24:08.762Z,22.07
2016-05-23T07:25:08.655Z,22.1
2016-05-23T07:26:08.689Z,22.09
2016-05-23T07:28:08.740Z,22.09
2016-05-23T07:29:23.243Z,22.07
2016-05-23T07:30:36.890Z,22.12
2016-05-23T07:31:08.765Z,22.1
2016-05-23T07:32:08.970Z,22.09
2016-05-23T07:33:08.629Z,22.18
2016-05-23T07:34:08.835Z,22.18
2016-05-23T07:35:09.010Z,22.27
2016-05-23T07:36:09.262Z,22.2
2016-05-23T07:37:08.890Z,22.27
2016-05-23T07:38:22.940Z,22.21
2016-05-23T07:39:08.881Z,22.27
2016-05-23T07:40:08.914Z,22.24
2016-05-23T07:41:10.808Z,22.24
2016-05-23T07:42:08.919Z,22.33
2016-05-23T07:43:08.969Z,22.37
2016-05-23T07:44:08.955Z,22.4
2016-05-23T07:45:09.022Z,22.46
2016-05-23T07:46:08.977Z,22.43
2016-05-23T07:47:09.213Z,22.51
2016-05-23T07:48:09.201Z,22.51
2016-05-23T07:50:09.003Z,22.67
2016-05-23T07:51:09.100Z,22.72
2016-05-23T07:52:09.290Z,22.73
2016-05-23T07:53:08.933Z,22.86
2016-05-23T07:54:09.139Z,22.77
2016-05-23T07:56:09.301Z,22.91
2016-05-23T07:57:09.241Z,23.01
2016-05-23T07:58:09.353Z,23.1
2016-05-23T07:59:09.184Z,23.12
2016-05-23T08:00:09.201Z,23.15
2016-05-23T08:01:09.221Z,23.2
2016-05-23T08:02:09.411Z,23.35
2016-05-23T08:03:23.929Z,23.22
2016-05-23T08:04:09.228Z,23.42
2016-05-23T08:05:12.122Z,23.38
2016-05-23T08:07:12.268Z,23.43
2016-05-23T08:08:09.208Z,23.47
2016-05-23T08:09:09.523Z,23.6
2016-05-23T08:10:09.386Z,23.66
2016-05-23T08:11:11.607Z,23.57
2016-05-23T08:12:23.781Z,23.68
2016-05-23T08:14:09.397Z,23.78
2016-05-23T08:15:09.899Z,23.88
2016-05-23T08:16:09.416Z,23.97
2016-05-23T08:17:09.451Z,24.09
2016-05-23T08:18:09.500Z,24.09
2016-05-23T08:19:09.488Z,24.21
2016-05-23T08:20:09.522Z,24.28
2016-05-23T08:21:10.040Z,24.4
2016-05-23T08:22:09.543Z,24.46
2016-05-23T08:23:09.529Z,24.52
2016-05-23T08:24:09.595Z,24.45
2016-05-23T08:25:12.565Z,24.58
2016-05-23T08:26:09.976Z,24.62
2016-05-23T08:27:09.665Z,24.71
2016-05-23T08:28:09.652Z,24.67
2016-05-23T08:29:09.936Z,24.69
2016-05-23T08:30:23.954Z,24.77
2016-05-23T08:31:09.692Z,24.68
2016-05-23T08:32:10.226Z,24.52
2016-05-23T08:33:09.712Z,24.57
2016-05-23T08:34:12.809Z,24.57
2016-05-23T08:35:10.140Z,24.43
2016-05-23T08:36:09.753Z,24.45
2016-05-23T08:37:09.801Z,24.32
2016-05-23T08:38:09.664Z,24.24
2016-05-23T08:39:10.011Z,24.13
2016-05-23T08:40:09.888Z,24.09
2016-05-23T08:41:10.203Z,23.98
2016-05-23T08:42:26.955Z,23.95
2016-05-23T08:43:12.849Z,23.94
2016-05-23T08:44:10.633Z,23.93
2016-05-23T08:45:13.027Z,23.85
2016-05-23T08:46:10.905Z,23.94
2016-05-23T08:47:09.828Z,23.85
2016-05-23T08:48:10.160Z,23.83
2016-05-23T08:49:09.506Z,23.66
2016-05-23T08:50:10.180Z,23.69
2016-05-23T08:51:10.182Z,23.73
2016-05-23T08:52:10.013Z,23.65
2016-05-23T08:53:24.313Z,23.57
2016-05-23T08:54:10.035Z,23.58
2016-05-23T08:55:10.069Z,23.6
2016-05-23T08:56:10.713Z,23.53
2016-05-23T08:57:09.934Z,23.42
2016-05-23T08:58:10.171Z,23.42
2016-05-23T08:59:10.157Z,23.33
2016-05-23T09:00:10.426Z,23.35
2016-05-23T09:01:10.148Z,23.38
2016-05-23T09:02:10.181Z,23.46
2016-05-23T09:03:10.246Z,23.46
2016-05-23T09:04:13.406Z,23.51
2016-05-23T09:05:10.221Z,23.55
2016-05-23T09:06:10.223Z,23.51
2016-05-23T09:07:10.257Z,23.58
2016-05-23T09:08:10.479Z,23.7
2016-05-23T09:09:10.294Z,23.58
2016-05-23T09:10:10.297Z,23.55
2016-05-23T09:11:10.142Z,23.6
2016-05-23T09:12:10.302Z,23.69
2016-05-23T09:13:10.305Z,23.68
2016-05-23T09:14:10.183Z,23.7
2016-05-23T09:15:10.404Z,23.65
2016-05-23T09:16:10.391Z,23.73
2016-05-23T09:17:10.378Z,23.76
2016-05-23T09:18:11.194Z,23.78
2016-05-23T09:19:10.431Z,23.79
2016-05-23T09:20:10.636Z,23.88
2016-05-23T09:21:10.436Z,23.94
2016-05-23T09:22:10.626Z,23.95
2016-05-23T09:23:10.457Z,23.93
2016-05-23T09:24:10.506Z,23.9
2016-05-23T09:25:10.602Z,24
2016-05-23T09:26:10.512Z,24.03
2016-05-23T09:27:11.827Z,23.97
2016-05-23T09:28:10.376Z,24.02
2016-05-23T09:29:10.566Z,24.06
2016-05-23T09:30:11.023Z,24.12
2016-05-23T09:31:10.587Z,24.15
2016-05-23T09:32:10.606Z,24.09
2016-05-23T09:33:10.624Z,24.1
2016-05-23T09:34:10.829Z,24.22
2016-05-23T09:35:10.645Z,24.21
2016-05-23T09:36:24.773Z,24.2
2016-05-23T09:37:13.619Z,24.18
2016-05-23T09:38:10.715Z,24.16
2016-05-23T09:39:11.156Z,24.2
2016-05-23T09:40:10.736Z,24.25
2016-05-23T09:41:10.583Z,24.31
2016-05-23T09:42:10.820Z,24.35
2016-05-23T09:43:11.011Z,24.46
2016-05-23T09:44:10.826Z,24.46
2016-05-23T09:45:10.844Z,24.61
2016-05-23T09:46:10.894Z,24.58
2016-05-23T09:47:11.068Z,24.64
2016-05-23T09:48:11.009Z,24.78
2016-05-23T09:49:10.886Z,24.78
2016-05-23T09:50:10.951Z,24.84
2016-05-23T09:51:10.438Z,24.91
2016-05-23T09:52:11.457Z,24.9
2016-05-23T09:53:10.803Z,25.03
2016-05-23T09:54:10.837Z,25.06
2016-05-23T09:55:11.246Z,25.08
2016-05-23T09:56:11.030Z,25.1
2016-05-23T09:57:11.298Z,25.08
2016-05-23T09:58:10.879Z,25.06
2016-05-23T09:59:11.663Z,25.08
2016-05-23T10:00:11.432Z,25.09
2016-05-23T10:01:11.074Z,25.08
2016-05-23T10:02:11.280Z,25.09
2016-05-23T10:03:11.127Z,25.24
2016-05-23T10:04:11.146Z,25.23
2016-05-23T10:05:11.585Z,25.33
2016-05-23T10:06:11.151Z,25.46
2016-05-23T10:07:14.184Z,25.33
2016-05-23T10:08:25.281Z,25.4
2016-05-23T10:09:25.283Z,25.46
2016-05-23T10:10:11.239Z,25.47
2016-05-23T10:11:11.304Z,25.58
2016-05-23T10:12:11.479Z,25.52
2016-05-23T10:13:11.497Z,25.6
2016-05-23T10:14:11.484Z,25.58
2016-05-23T10:15:11.159Z,25.54
2016-05-23T10:16:11.318Z,25.52
2016-05-23T10:17:11.461Z,25.6
2016-05-23T10:18:11.416Z,25.52
2016-05-23T10:19:11.217Z,25.57
2016-05-23T10:20:11.407Z,25.51
2016-05-23T10:21:11.394Z,25.58
2016-05-23T10:22:11.630Z,25.51
2016-05-23T10:23:11.430Z,25.57
2016-05-23T10:24:11.464Z,25.57
2016-05-23T10:25:11.780Z,25.6
2016-05-23T10:26:11.516Z,25.57
2016-05-23T10:27:11.504Z,25.69
2016-05-23T10:28:11.413Z,25.69
2016-05-23T10:29:11.557Z,25.67
2016-05-23T10:30:11.793Z,25.7
2016-05-23T10:31:11.796Z,25.73
2016-05-23T10:32:11.643Z,25.9
2016-05-23T10:33:11.599Z,25.87
2016-05-23T10:34:11.615Z,25.95
2016-05-23T10:35:11.509Z,25.94
2016-05-23T10:36:11.700Z,25.95
2016-05-23T10:37:11.703Z,26.07
2016-05-23T10:38:11.892Z,26.01
2016-05-23T10:39:11.411Z,26.12
2016-05-23T10:40:11.773Z,26.13
2016-05-23T10:41:11.776Z,26.2
2016-05-23T10:42:11.778Z,26.17
2016-05-23T10:43:11.781Z,26.35
2016-05-23T10:44:11.799Z,26.3
2016-05-23T10:45:11.864Z,26.25
2016-05-23T10:46:11.867Z,26.29
2016-05-23T10:47:11.870Z,26.29
2016-05-23T10:48:11.716Z,26.4
2016-05-23T10:49:12.110Z,26.26
2016-05-23T10:50:11.909Z,26.33
2016-05-23T10:51:11.959Z,26.23
2016-05-23T10:52:11.961Z,26.37
2016-05-23T10:53:11.964Z,26.4
2016-05-23T10:54:11.967Z,26.36
2016-05-23T10:55:12.048Z,26.36
2016-05-23T10:56:12.035Z,26.51
2016-05-23T10:57:12.021Z,26.52
2016-05-23T10:58:12.055Z,26.5
2016-05-23T10:59:12.074Z,26.66
2016-05-23T11:00:12.296Z,26.6
2016-05-23T11:01:11.970Z,26.65
2016-05-23T11:02:11.988Z,26.58
2016-05-23T11:03:11.991Z,26.67
2016-05-23T11:04:12.182Z,26.69
2016-05-23T11:05:12.403Z,26.69
2016-05-23T11:06:26.265Z,26.75
2016-05-23T11:07:12.284Z,26.81
2016-05-23T11:08:12.443Z,26.84
2016-05-23T11:09:12.335Z,26.77
2016-05-23T11:10:12.260Z,26.8
2016-05-23T11:11:12.356Z,26.82
2016-05-23T11:12:12.359Z,26.81
2016-05-23T11:13:26.393Z,26.72
2016-05-23T11:14:12.192Z,26.75
2016-05-23T11:15:12.555Z,26.75
2016-05-23T11:16:26.651Z,26.84
2016-05-23T11:17:12.420Z,26.85
2016-05-23T11:18:12.392Z,26.85
2016-05-23T11:19:12.425Z,26.69
2016-05-23T11:20:12.506Z,26.88
2016-05-23T11:21:26.555Z,26.89
2016-05-23T11:22:12.527Z,26.89
2016-05-23T11:23:26.780Z,26.89
2016-05-23T11:24:12.516Z,26.87
2016-05-23T11:25:12.941Z,26.95
2016-05-23T11:26:12.553Z,27
2016-05-23T11:27:12.572Z,27.04
2016-05-23T11:28:12.808Z,27.1
2016-05-23T11:29:12.593Z,27.13
2016-05-23T11:30:12.877Z,27.03
2016-05-23T11:31:12.894Z,26.92
2016-05-23T11:32:12.882Z,26.94
2016-05-23T11:33:12.697Z,26.94
2016-05-23T11:34:12.716Z,27.02
2016-05-23T11:35:12.249Z,26.95
2016-05-23T11:36:13.002Z,26.91
2016-05-23T11:37:12.740Z,26.91
2016-05-23T11:38:12.976Z,26.99
2016-05-23T11:39:13.979Z,26.94
2016-05-23T11:40:26.856Z,26.97
2016-05-23T11:41:12.843Z,26.95
2016-05-23T11:42:13.143Z,27.07
2016-05-23T11:43:12.864Z,27.19
2016-05-23T11:44:12.883Z,27.25
2016-05-23T11:45:13.401Z,27.29
2016-05-23T11:46:12.981Z,27.44
2016-05-23T11:47:12.969Z,27.5
2016-05-23T11:48:12.940Z,27.55
2016-05-23T11:49:13.177Z,27.59
2016-05-23T11:50:12.992Z,27.54
2016-05-23T11:51:13.042Z,27.54
2016-05-23T11:52:13.139Z,27.54
2016-05-23T11:53:13.236Z,27.55
2016-05-23T11:55:13.991Z,27.55
2016-05-23T11:56:13.493Z,27.55
2016-05-23T11:57:13.152Z,27.62
2016-05-23T11:58:13.124Z,27.75
2016-05-23T11:59:14.814Z,27.79
2016-05-23T12:00:14.130Z,27.81
2016-05-23T12:01:14.162Z,27.82
2016-05-23T12:02:13.274Z,27.84
2016-05-23T12:03:13.730Z,27.85
2016-05-23T12:04:13.421Z,27.96
2016-05-23T12:05:13.018Z,27.92
2016-05-23T12:06:13.646Z,28.02
2016-05-23T12:07:13.695Z,28.09
2016-05-23T12:08:13.323Z,28.22
2016-05-23T12:09:14.201Z,28.36
2016-05-23T12:10:13.875Z,28.36
2016-05-23T12:11:13.518Z,28.46
2016-05-23T12:12:13.598Z,28.49
2016-05-23T12:13:14.179Z,28.46
2016-05-23T12:14:14.167Z,28.48
2016-05-23T12:16:13.969Z,28.58
2016-05-23T12:17:28.159Z,28.76
2016-05-23T12:18:13.895Z,28.67
2016-05-23T12:19:14.055Z,28.81
2016-05-23T12:20:14.276Z,28.74
2016-05-23T12:21:14.108Z,28.74
2016-05-23T12:22:14.111Z,28.83
2016-05-23T12:23:14.191Z,28.89
2016-05-23T12:24:14.162Z,29.02
2016-05-23T12:25:14.196Z,28.95
2016-05-23T12:26:13.964Z,29.04
2016-05-23T12:27:14.014Z,28.95
2016-05-23T12:28:14.220Z,28.93
2016-05-23T12:29:14.191Z,28.92
2016-05-23T12:30:15.178Z,28.95
2016-05-23T12:31:13.306Z,28.8
2016-05-23T12:32:28.183Z,28.85
2016-05-23T12:33:13.640Z,28.89
2016-05-23T12:34:14.392Z,28.93
2016-05-23T12:35:14.176Z,28.95
2016-05-23T12:36:14.632Z,28.85
2016-05-23T12:37:27.979Z,28.77
2016-05-23T12:38:14.154Z,28.83
2016-05-23T12:39:14.077Z,28.8
2016-05-23T12:40:15.126Z,28.81
2016-05-23T12:41:14.004Z,28.83
2016-05-23T12:42:14.445Z,28.78
2016-05-23T12:43:15.635Z,28.73
2016-05-23T12:44:14.545Z,28.73
2016-05-23T12:45:15.000Z,28.76
2016-05-23T12:46:14.565Z,28.76
2016-05-23T12:47:15.568Z,28.89
2016-05-23T12:48:15.618Z,28.78
2016-05-23T12:49:14.729Z,28.73
2016-05-23T12:50:14.638Z,28.62
2016-05-23T12:51:16.423Z,28.41
2016-05-23T12:52:14.956Z,28.46
2016-05-23T12:53:17.412Z,28.41
2016-05-23T12:54:15.290Z,28.39
2016-05-23T12:55:15.011Z,28.33
2016-05-23T12:56:14.544Z,28.44
2016-05-23T12:57:14.657Z,28.44
2016-05-23T12:58:14.285Z,28.41
2016-05-23T12:59:14.819Z,28.4
2016-05-23T13:00:14.352Z,28.43
2016-05-23T13:01:14.761Z,28.51
2016-05-23T13:02:14.593Z,28.64
2016-05-23T13:03:14.752Z,28.59
2016-05-23T13:04:14.535Z,28.66
2016-05-23T13:05:14.694Z,28.58
2016-05-23T13:07:14.902Z,28.61
2016-05-23T13:08:15.468Z,28.56
2016-05-23T13:09:14.987Z,28.58
2016-05-23T13:10:15.130Z,28.7
2016-05-23T13:11:15.163Z,28.76
2016-05-23T13:12:15.338Z,28.73
2016-05-23T13:13:15.059Z,28.71
2016-05-23T13:14:15.453Z,28.64
2016-05-23T13:15:14.814Z,28.7
2016-05-23T13:16:15.599Z,28.67
2016-05-23T13:17:14.695Z,28.64
2016-05-23T13:19:14.701Z,28.81
2016-05-23T13:20:14.719Z,28.8
2016-05-23T13:21:15.144Z,28.7
2016-05-23T13:22:14.990Z,28.78
2016-05-23T13:23:15.508Z,28.76